Time;durP1;ratioP1;P1;durP2;ratioP2;P2;SDS_P1;SDS_P2;PMS_P1;PMS_P2;Temp;Humidity;BMP_temperature;BMP_pressure;BME280_temperature;BME280_humidity;BME280_pressure;Samples;Min_cycle;Max_cycle;Signal;HPM_P1;HPM_P2
2023/01/25 00:01:52;;;;;;;30.38;26.55;;;3.30;99.90;;;;;;5093132;28;20024;-63
2023/01/25 00:04:19;;;;;;;33.05;29.45;;;3.30;99.90;;;;;;5093574;28;20043;-63
2023/01/25 00:06:45;;;;;;;31.65;28.13;;;3.40;99.90;;;;;;5092868;28;20039;-63
2023/01/25 00:09:11;;;;;;;30.53;26.83;;;3.40;99.90;;;;;;5048493;28;1264077;-63
2023/01/25 00:11:37;;;;;;;29.83;26.50;;;3.30;99.90;;;;;;5093925;28;20028;-63
2023/01/25 00:14:04;;;;;;;30.02;26.63;;;3.20;99.90;;;;;;5093640;28;20495;-63
2023/01/25 00:16:30;;;;;;;27.52;24.63;;;3.20;99.90;;;;;;5094325;28;20024;-63
2023/01/25 00:18:55;;;;;;;29.27;25.27;;;3.20;99.90;;;;;;5093795;28;20094;-63
2023/01/25 00:21:23;;;;;;;27.50;23.98;;;3.10;99.90;;;;;;5093736;28;20027;-64
2023/01/25 00:23:49;;;;;;;26.15;22.77;;;3.10;99.90;;;;;;5093775;28;20028;-64
2023/01/25 00:26:15;;;;;;;26.75;23.85;;;3.00;99.90;;;;;;5093837;28;20043;-64
2023/01/25 00:28:42;;;;;;;25.35;22.48;;;3.10;99.90;;;;;;5093434;28;20109;-63
2023/01/25 00:31:14;;;;;;;25.25;22.55;;;3.00;99.90;;;;;;5094001;28;20431;-63
2023/01/25 00:33:55;;;;;;;29.27;23.60;;;3.10;99.90;;;;;;5093503;28;20062;-63
2023/01/25 00:36:36;;;;;;;26.50;23.35;;;3.00;99.90;;;;;;5093575;28;20255;-63
2023/01/25 00:39:03;;;;;;;26.15;23.35;;;2.90;99.90;;;;;;5092685;28;20032;-64
2023/01/25 00:41:29;;;;;;;26.17;22.88;;;3.10;99.90;;;;;;5093324;28;20035;-63
2023/01/25 00:43:54;;;;;;;29.67;26.45;;;3.10;99.90;;;;;;5093481;28;20020;-63
2023/01/25 00:46:20;;;;;;;27.25;24.25;;;3.00;99.90;;;;;;5093268;28;20031;-63
2023/01/25 00:48:46;;;;;;;26.63;23.67;;;3.00;99.90;;;;;;5093232;28;20107;-63
2023/01/25 00:51:12;;;;;;;26.75;23.88;;;3.00;99.90;;;;;;5093730;28;20088;-63
2023/01/25 00:53:38;;;;;;;29.02;24.60;;;2.90;99.90;;;;;;5093208;28;20020;-63
2023/01/25 00:56:04;;;;;;;30.83;26.25;;;2.80;99.90;;;;;;5091898;28;20061;-63
2023/01/25 00:58:30;;;;;;;31.08;26.42;;;2.60;99.90;;;;;;5092758;28;20076;-63
2023/01/25 01:00:56;;;;;;;31.77;26.88;;;2.40;99.90;;;;;;5092999;28;20036;-63
2023/01/25 01:03:22;;;;;;;30.02;25.95;;;2.30;99.90;;;;;;5093332;28;20055;-63
2023/01/25 01:05:57;;;;;;;37.17;29.88;;;1.90;99.90;;;;;;5093108;28;20044;-63
2023/01/25 01:08:23;;;;;;;41.75;34.65;;;1.90;99.90;;;;;;5092826;28;20122;-63
2023/01/25 01:10:48;;;;;;;45.30;38.35;;;1.80;99.90;;;;;;5092303;28;20127;-63
2023/01/25 01:13:14;;;;;;;51.70;45.33;;;1.60;99.90;;;;;;5092895;28;20388;-63
2023/01/25 01:15:40;;;;;;;48.90;42.10;;;1.30;99.90;;;;;;5093201;28;20028;-63
2023/01/25 01:18:05;;;;;;;56.20;50.13;;;1.10;99.90;;;;;;5092838;28;20020;-63
2023/01/25 01:20:31;;;;;;;58.67;49.22;;;1.20;99.90;;;;;;5092720;28;20374;-63
2023/01/25 01:22:57;;;;;;;58.03;48.60;;;1.10;99.90;;;;;;5092640;28;20069;-63
2023/01/25 01:25:22;;;;;;;56.63;47.88;;;0.90;99.90;;;;;;5092633;28;20501;-63
2023/01/25 01:27:48;;;;;;;56.53;47.78;;;0.70;99.90;;;;;;5092739;28;20027;-63
2023/01/25 01:30:14;;;;;;;60.72;53.78;;;0.70;99.90;;;;;;5092634;28;20031;-63
2023/01/25 01:32:40;;;;;;;74.38;65.30;;;0.80;99.90;;;;;;5092392;28;20024;-64
2023/01/25 01:35:06;;;;;;;72.53;64.28;;;0.70;99.90;;;;;;5092588;28;20028;-63
2023/01/25 01:37:32;;;;;;;73.57;63.78;;;0.70;99.90;;;;;;5092895;28;20020;-63
2023/01/25 01:39:57;;;;;;;49.80;40.65;;;0.90;99.90;;;;;;5091967;28;20036;-63
2023/01/25 01:42:23;;;;;;;47.40;39.65;;;0.80;99.90;;;;;;5092587;28;20027;-63
2023/01/25 01:44:53;;;;;;;43.75;34.58;;;0.70;99.90;;;;;;5092254;28;20028;-63
2023/01/25 01:47:29;;;;;;;44.05;36.60;;;0.60;99.90;;;;;;5092612;28;20024;-63
2023/01/25 01:50:01;;;;;;;46.55;36.30;;;0.50;99.90;;;;;;5092290;28;20047;-63
2023/01/25 01:52:31;;;;;;;42.22;33.17;;;0.40;99.90;;;;;;5092590;28;20392;-63
2023/01/25 01:55:11;;;;;;;39.45;32.38;;;0.30;99.90;;;;;;5091887;28;20512;-63
2023/01/25 01:57:43;;;;;;;33.75;28.15;;;0.30;99.90;;;;;;5092192;28;20031;-63
2023/01/25 02:00:13;;;;;;;35.28;29.20;;;0.30;99.90;;;;;;5092600;28;20438;-63
2023/01/25 02:02:40;;;;;;;29.45;25.92;;;0.20;99.90;;;;;;5092076;28;20485;-63
2023/01/25 02:05:13;;;;;;;32.70;27.27;;;0.20;99.90;;;;;;5092104;28;20031;-63
2023/01/25 02:07:39;;;;;;;33.40;26.63;;;0.10;99.90;;;;;;5091841;28;20107;-63
2023/01/25 02:10:09;;;;;;;31.17;26.65;;;0.10;99.90;;;;;;5091527;28;20132;-63
2023/01/25 02:12:36;;;;;;;31.33;25.88;;;0.00;99.90;;;;;;5092095;28;20024;-63
2023/01/25 02:15:03;;;;;;;30.67;26.65;;;0.00;99.90;;;;;;5092383;28;20385;-63
2023/01/25 02:17:34;;;;;;;30.08;25.52;;;-0.10;99.90;;;;;;5091952;28;20433;-63
2023/01/25 02:20:16;;;;;;;30.98;26.67;;;-0.10;99.90;;;;;;5091698;28;20097;-63
2023/01/25 02:22:58;;;;;;;28.95;25.52;;;-0.10;99.90;;;;;;5091951;28;20077;-64
2023/01/25 02:25:24;;;;;;;29.08;25.27;;;-0.20;99.90;;;;;;5091358;28;20036;-63
2023/01/25 02:27:54;;;;;;;29.35;24.88;;;-0.20;99.90;;;;;;5091923;28;20016;-64
2023/01/25 02:30:20;;;;;;;30.58;26.40;;;-0.30;99.90;;;;;;5091823;28;20028;-63
2023/01/25 02:32:46;;;;;;;29.30;25.35;;;-0.40;99.90;;;;;;5092191;28;20020;-63
2023/01/25 02:35:24;;;;;;;32.88;27.08;;;-0.50;99.90;;;;;;5090725;28;20020;-63
2023/01/25 02:37:49;;;;;;;31.60;26.38;;;-0.50;99.90;;;;;;5091522;28;20489;-63
2023/01/25 02:40:17;;;;;;;30.75;26.38;;;-0.60;99.90;;;;;;5091624;28;20028;-63
2023/01/25 02:42:44;;;;;;;30.23;25.73;;;-0.60;99.90;;;;;;5091725;28;20020;-64
2023/01/25 02:45:15;;;;;;;33.65;26.20;;;-0.80;99.90;;;;;;5091611;28;20028;-64
2023/01/25 02:47:40;;;;;;;36.47;28.17;;;-1.00;99.90;;;;;;5091615;28;20089;-63
2023/01/25 02:50:07;;;;;;;38.90;28.38;;;-0.80;99.90;;;;;;5091525;28;20476;-63
2023/01/25 02:52:33;;;;;;;36.35;26.67;;;-0.80;99.90;;;;;;5091316;28;20078;-64
2023/01/25 02:54:59;;;;;;;34.00;28.30;;;-0.90;99.90;;;;;;5091860;28;20040;-63
2023/01/25 02:57:25;;;;;;;38.58;29.60;;;-0.80;99.90;;;;;;5091388;28;20496;-63
2023/01/25 02:59:50;;;;;;;37.17;28.70;;;-0.90;99.90;;;;;;5091312;28;20130;-63
2023/01/25 03:02:16;;;;;;;38.15;27.80;;;-1.00;99.90;;;;;;5091791;28;20012;-63
2023/01/25 03:04:42;;;;;;;37.92;27.13;;;-1.00;99.90;;;;;;5095245;28;20481;-64
2023/01/25 03:07:08;;;;;;;40.85;29.55;;;-0.90;99.90;;;;;;5094672;28;20043;-63
2023/01/25 03:09:33;;;;;;;37.60;29.13;;;-0.90;99.90;;;;;;5094780;28;20137;-64
2023/01/25 03:11:59;;;;;;;38.22;29.05;;;-0.90;99.90;;;;;;5095203;28;20103;-63
2023/01/25 03:14:25;;;;;;;39.65;30.00;;;-0.90;99.90;;;;;;5095022;28;20032;-64
2023/01/25 03:16:50;;;;;;;37.45;28.20;;;-0.90;99.90;;;;;;5095086;28;20031;-64
2023/01/25 03:19:16;;;;;;;37.10;26.50;;;-1.00;99.90;;;;;;5094771;28;20036;-64
2023/01/25 03:21:42;;;;;;;37.75;26.88;;;-1.10;99.90;;;;;;5094769;28;20031;-64
2023/01/25 03:24:08;;;;;;;38.83;27.63;;;-1.50;99.90;;;;;;5094862;28;20361;-64
2023/01/25 03:27:09;;;;;;;41.95;33.72;;;-1.60;99.90;;;;;;5095039;28;20028;-64
2023/01/25 03:29:20;;;;;;;37.50;30.33;;;-1.70;99.90;;;;;;5094474;28;20489;-64
2023/01/25 03:31:45;;;;;;;38.33;28.92;;;-1.80;99.90;;;;;;5094867;28;20044;-63
2023/01/25 03:34:11;;;;;;;40.30;30.58;;;-1.90;99.90;;;;;;5094593;28;20058;-64
2023/01/25 03:36:36;;;;;;;40.15;29.67;;;-1.90;99.90;;;;;;5094233;28;20488;-63
2023/01/25 03:39:02;;;;;;;41.72;31.33;;;-2.00;99.90;;;;;;5094464;28;20115;-64
2023/01/25 03:41:28;;;;;;;42.50;31.30;;;-1.90;99.90;;;;;;5094847;28;20039;-64
2023/01/25 03:43:54;;;;;;;44.63;34.38;;;-2.00;99.90;;;;;;5094479;28;20024;-63
2023/01/25 03:46:19;;;;;;;41.95;30.30;;;-1.70;99.90;;;;;;5094221;28;20028;-63
2023/01/25 03:48:45;;;;;;;43.42;31.33;;;-1.50;99.90;;;;;;5094372;28;20028;-63
2023/01/25 03:51:11;;;;;;;41.13;31.10;;;-1.40;99.90;;;;;;5093849;28;20032;-64
2023/01/25 03:53:37;;;;;;;39.60;30.00;;;-1.10;99.90;;;;;;5094503;28;20096;-63
2023/01/25 03:56:07;;;;;;;38.97;28.50;;;-1.00;99.90;;;;;;5094279;28;20369;-64
2023/01/25 03:58:34;;;;;;;40.13;27.95;;;-1.30;99.90;;;;;;5094315;28;20032;-64
2023/01/25 04:01:00;;;;;;;38.03;29.48;;;-1.30;99.90;;;;;;5094042;28;20032;-64
2023/01/25 04:03:27;;;;;;;37.53;27.23;;;-1.50;99.90;;;;;;5094042;28;20361;-63
2023/01/25 04:05:54;;;;;;;35.50;25.65;;;-1.30;99.90;;;;;;5094049;28;20115;-64
2023/01/25 04:08:20;;;;;;;35.75;25.73;;;-1.20;99.90;;;;;;5093823;28;20032;-63
2023/01/25 04:10:59;;;;;;;35.58;28.23;;;-1.10;99.90;;;;;;5093645;28;20036;-63
2023/01/25 04:13:25;;;;;;;37.30;28.20;;;-1.00;99.90;;;;;;5093424;28;20503;-63
2023/01/25 04:15:51;;;;;;;34.78;24.63;;;-0.80;99.90;;;;;;5093085;28;20032;-63
2023/01/25 04:18:17;;;;;;;33.95;25.33;;;-0.60;99.90;;;;;;5093685;28;20403;-63
2023/01/25 04:20:44;;;;;;;31.90;27.80;;;-0.60;99.90;;;;;;5093626;28;20086;-63
2023/01/25 04:23:10;;;;;;;36.78;28.00;;;-0.60;99.90;;;;;;5094075;28;20028;-63
2023/01/25 04:25:37;;;;;;;34.85;27.10;;;-0.50;99.90;;;;;;5093559;28;20032;-63
2023/01/25 04:28:03;;;;;;;35.22;28.23;;;-0.40;99.90;;;;;;5093536;28;20493;-63
2023/01/25 04:30:29;;;;;;;36.63;28.60;;;-0.30;99.90;;;;;;5093628;28;20154;-63
2023/01/25 04:32:54;;;;;;;33.83;27.70;;;-0.20;99.90;;;;;;5093507;28;20551;-63
2023/01/25 04:35:20;;;;;;;37.17;28.63;;;-0.20;99.90;;;;;;5092931;28;20028;-63
2023/01/25 04:37:56;;;;;;;34.75;26.55;;;-0.20;99.90;;;;;;5093468;28;20036;-63
2023/01/25 04:40:22;;;;;;;33.80;26.60;;;-0.10;99.90;;;;;;5093649;28;20055;-63
2023/01/25 04:42:48;;;;;;;33.72;28.02;;;-0.10;99.90;;;;;;5093326;28;20488;-63
2023/01/25 04:45:14;;;;;;;35.10;26.83;;;-0.20;99.90;;;;;;5093234;28;20028;-64
2023/01/25 04:47:39;;;;;;;31.42;25.98;;;-0.10;99.90;;;;;;5093173;28;20103;-63
2023/01/25 04:50:05;;;;;;;33.75;27.85;;;0.10;99.90;;;;;;5092730;28;20035;-63
2023/01/25 04:52:31;;;;;;;35.40;28.30;;;0.00;99.90;;;;;;5093513;28;20039;-63
2023/01/25 04:54:57;;;;;;;33.78;29.13;;;0.00;99.90;;;;;;5092988;28;20085;-63
2023/01/25 04:57:23;;;;;;;37.15;30.00;;;0.00;99.90;;;;;;5092978;28;20032;-63
2023/01/25 04:59:48;;;;;;;33.72;27.35;;;0.20;99.90;;;;;;5092870;28;20043;-63
2023/01/25 05:02:14;;;;;;;36.08;29.67;;;0.20;99.90;;;;;;5093011;28;20081;-63
2023/01/25 05:04:40;;;;;;;36.33;30.63;;;0.20;99.90;;;;;;5092461;28;20024;-63
2023/01/25 05:07:05;;;;;;;36.22;29.88;;;0.10;99.90;;;;;;5093043;28;20529;-63
2023/01/25 05:09:31;;;;;;;35.17;28.63;;;0.20;99.90;;;;;;5092412;28;20055;-63
2023/01/25 05:11:57;;;;;;;39.72;31.77;;;0.20;99.90;;;;;;5092781;28;20026;-63
2023/01/25 05:14:23;;;;;;;40.33;31.40;;;0.30;99.90;;;;;;5093041;28;20499;-64
2023/01/25 05:16:48;;;;;;;46.42;34.00;;;0.30;99.90;;;;;;5092982;28;20445;-63
2023/01/25 05:19:14;;;;;;;39.50;33.05;;;0.40;99.90;;;;;;5092119;28;20043;-63
2023/01/25 05:21:58;;;;;;;42.28;34.17;;;0.40;99.90;;;;;;5093014;28;20027;-63
2023/01/25 05:24:28;;;;;;;39.95;32.15;;;0.40;99.90;;;;;;5092902;28;20154;-63
2023/01/25 05:27:04;;;;;;;44.28;33.67;;;0.50;99.90;;;;;;5092369;28;20039;-64
2023/01/25 05:29:34;;;;;;;46.97;35.00;;;0.50;99.90;;;;;;5092646;28;20028;-64
2023/01/25 05:32:02;;;;;;;39.22;32.08;;;0.60;99.90;;;;;;5092508;28;20047;-63
2023/01/25 05:34:27;;;;;;;46.63;36.92;;;0.60;99.90;;;;;;5092336;28;20036;-63
2023/01/25 05:36:53;;;;;;;52.38;41.60;;;0.60;99.90;;;;;;5092887;28;20016;-64
2023/01/25 05:39:19;;;;;;;38.60;32.28;;;0.60;99.90;;;;;;5092053;28;20096;-64
2023/01/25 05:41:45;;;;;;;35.53;28.27;;;0.50;99.90;;;;;;5092004;28;20027;-64
2023/01/25 05:44:10;;;;;;;38.92;30.95;;;0.70;99.90;;;;;;5092621;28;20035;-63
2023/01/25 05:46:36;;;;;;;36.80;29.83;;;0.70;99.90;;;;;;5091608;28;20023;-63
2023/01/25 05:49:02;;;;;;;36.88;29.35;;;0.80;99.90;;;;;;5092198;28;20115;-64
2023/01/25 05:51:28;;;;;;;37.22;29.38;;;0.90;99.90;;;;;;5092232;28;20389;-63
2023/01/25 05:53:55;;;;;;;40.70;31.42;;;0.90;99.90;;;;;;5092465;28;20020;-63
2023/01/25 05:56:21;;;;;;;36.97;30.58;;;0.90;99.90;;;;;;5092265;28;20024;-63
2023/01/25 05:58:46;;;;;;;41.72;33.03;;;0.90;99.90;;;;;;5092081;28;20042;-63
2023/01/25 06:01:12;;;;;;;38.13;30.35;;;0.90;99.90;;;;;;5091753;28;20540;-63
2023/01/25 06:03:38;;;;;;;31.30;26.73;;;0.90;99.90;;;;;;5091908;28;20028;-61
2023/01/25 06:06:04;;;;;;;35.53;27.05;;;0.80;99.90;;;;;;5092117;28;20083;-63
2023/01/25 06:08:30;;;;;;;41.55;34.15;;;0.90;99.90;;;;;;5092117;28;20031;-61
2023/01/25 06:10:56;;;;;;;42.15;34.42;;;0.90;99.90;;;;;;5090362;28;20052;-62
2023/01/25 06:13:22;;;;;;;44.08;37.47;;;1.00;99.90;;;;;;5092258;28;20102;-62
2023/01/25 06:15:52;;;;;;;38.75;32.75;;;1.00;99.90;;;;;;5091652;28;20085;-63
2023/01/25 06:18:18;;;;;;;39.05;31.50;;;0.90;99.90;;;;;;5091704;28;20455;-62
2023/01/25 06:20:44;;;;;;;39.47;31.13;;;1.00;99.90;;;;;;5091673;28;20116;-62
2023/01/25 06:23:09;;;;;;;39.20;30.55;;;0.90;99.90;;;;;;5092096;28;20028;-61
2023/01/25 06:25:35;;;;;;;36.95;29.30;;;1.00;99.90;;;;;;5091763;28;20047;-62
2023/01/25 06:28:01;;;;;;;36.50;29.17;;;1.00;99.90;;;;;;5091651;28;20048;-62
2023/01/25 06:30:27;;;;;;;39.78;30.75;;;1.00;99.90;;;;;;5091165;28;20073;-62
2023/01/25 06:32:52;;;;;;;38.63;33.22;;;1.00;99.90;;;;;;5091239;28;20024;-62
2023/01/25 06:35:18;;;;;;;52.38;41.92;;;1.00;99.90;;;;;;5088341;28;20473;-62
2023/01/25 06:37:43;;;;;;;51.85;42.80;;;1.00;99.90;;;;;;5092268;28;20026;-62
2023/01/25 06:40:10;;;;;;;47.60;39.70;;;1.00;99.90;;;;;;5095355;28;20028;-63
2023/01/25 06:42:35;;;;;;;48.10;38.30;;;1.00;99.90;;;;;;5093546;28;20081;-62
2023/01/25 06:45:01;;;;;;;46.92;38.92;;;1.00;99.90;;;;;;5094622;28;20119;-61
2023/01/25 06:47:27;;;;;;;45.25;36.58;;;1.00;99.90;;;;;;5094852;28;20013;-63
2023/01/25 06:49:52;;;;;;;57.65;45.53;;;1.00;99.90;;;;;;5095195;28;20040;-62
2023/01/25 06:52:18;;;;;;;141.38;97.90;;;1.00;99.90;;;;;;5091988;28;20024;-62
2023/01/25 06:54:44;;;;;;;56.00;43.63;;;1.00;99.90;;;;;;5094881;28;20040;-60
2023/01/25 06:57:10;;;;;;;46.25;35.58;;;1.10;99.90;;;;;;5095122;28;20024;-62
2023/01/25 06:59:36;;;;;;;80.45;61.35;;;1.00;99.90;;;;;;5093325;28;20040;-63
2023/01/25 07:02:02;;;;;;;80.45;66.75;;;1.10;99.90;;;;;;5094509;28;20019;-63
2023/01/25 07:04:28;;;;;;;103.10;89.80;;;1.00;99.90;;;;;;5094779;28;20024;-62
2023/01/25 07:06:53;;;;;;;88.00;73.78;;;1.00;99.90;;;;;;5094417;28;20083;-62
2023/01/25 07:09:23;;;;;;;117.63;101.10;;;1.10;99.90;;;;;;5094427;28;20624;-62
2023/01/25 07:11:49;;;;;;;68.15;58.42;;;1.10;99.90;;;;;;5095303;28;20116;-63
2023/01/25 07:14:15;;;;;;;86.72;73.13;;;1.10;99.90;;;;;;5095067;28;20039;-63
2023/01/25 07:16:41;;;;;;;49.72;39.60;;;1.10;99.90;;;;;;5094984;28;20372;-63
2023/01/25 07:19:10;;;;;;;78.05;62.35;;;1.10;99.90;;;;;;5093871;28;20032;-62
2023/01/25 07:21:36;;;;;;;103.78;80.80;;;1.10;99.90;;;;;;5094705;28;20524;-63
2023/01/25 07:24:03;;;;;;;46.55;37.70;;;1.10;99.90;;;;;;5094775;28;20095;-63
2023/01/25 07:26:30;;;;;;;44.35;35.88;;;1.10;99.90;;;;;;5094793;28;20052;-63
2023/01/25 07:28:57;;;;;;;55.85;41.33;;;1.30;99.90;;;;;;5094298;28;20043;-64
2023/01/25 07:31:24;;;;;;;60.72;43.13;;;1.30;99.90;;;;;;5094557;28;20028;-63
2023/01/25 07:33:52;;;;;;;63.63;45.35;;;1.30;99.90;;;;;;5094687;28;20054;-63
2023/01/25 07:36:18;;;;;;;56.42;41.65;;;1.30;99.90;;;;;;5094651;28;20028;-64
2023/01/25 07:38:44;;;;;;;62.63;47.90;;;1.20;99.90;;;;;;5094502;28;20039;-64
2023/01/25 07:41:10;;;;;;;59.95;46.95;;;1.20;99.90;;;;;;5094604;28;20063;-63
2023/01/25 07:43:36;;;;;;;59.63;46.03;;;1.20;99.90;;;;;;5094506;28;20494;-63
2023/01/25 07:46:04;;;;;;;63.05;47.97;;;1.20;99.90;;;;;;5094169;28;20024;-63
2023/01/25 07:48:31;;;;;;;66.80;50.58;;;1.20;99.90;;;;;;5094287;28;20016;-63
2023/01/25 07:51:11;;;;;;;98.15;78.22;;;1.30;99.90;;;;;;5094239;28;20034;-63
2023/01/25 07:53:41;;;;;;;52.70;41.80;;;1.30;99.90;;;;;;5094242;28;20498;-63
2023/01/25 07:56:09;;;;;;;135.40;101.05;;;1.40;99.90;;;;;;5094253;28;20044;-63
2023/01/25 07:58:34;;;;;;;46.05;35.63;;;1.40;99.90;;;;;;5094131;28;20020;-63
2023/01/25 08:01:06;;;;;;;41.30;34.47;;;1.40;99.90;;;;;;5094330;28;20032;-63
2023/01/25 08:03:32;;;;;;;51.80;41.83;;;1.50;99.90;;;;;;5093971;28;20101;-63
2023/01/25 08:05:58;;;;;;;45.08;36.08;;;1.50;99.90;;;;;;5094002;28;20085;-63
2023/01/25 08:08:24;;;;;;;40.33;34.50;;;1.60;99.90;;;;;;5093936;28;20464;-63
2023/01/25 08:10:50;;;;;;;42.58;36.20;;;1.60;99.90;;;;;;5094241;28;20075;-63
2023/01/25 08:13:16;;;;;;;74.40;48.72;;;1.60;99.90;;;;;;5093526;28;20077;-63
2023/01/25 08:15:41;;;;;;;78.40;50.33;;;1.60;99.90;;;;;;5093932;28;20032;-63
2023/01/25 08:18:07;;;;;;;62.80;44.70;;;1.60;99.90;;;;;;5093753;28;20024;-63
2023/01/25 08:20:33;;;;;;;59.70;43.03;;;1.60;99.90;;;;;;5093739;28;20067;-63
2023/01/25 08:22:58;;;;;;;65.15;44.72;;;1.60;99.90;;;;;;5094090;28;20024;-63
2023/01/25 08:25:24;;;;;;;53.08;42.75;;;1.60;99.90;;;;;;5093694;28;20032;-63
2023/01/25 08:27:51;;;;;;;54.45;42.50;;;1.50;99.90;;;;;;5093408;28;20516;-62
2023/01/25 08:30:16;;;;;;;58.88;48.05;;;1.50;99.90;;;;;;5093571;28;20028;-63
2023/01/25 08:32:42;;;;;;;85.53;66.07;;;1.50;99.90;;;;;;5093402;28;20024;-63
2023/01/25 08:35:08;;;;;;;57.03;48.80;;;1.60;99.90;;;;;;5093505;28;20072;-63
2023/01/25 08:37:34;;;;;;;49.13;38.83;;;1.60;99.90;;;;;;5093548;28;20024;-63
2023/01/25 08:40:00;;;;;;;50.83;37.75;;;1.60;99.90;;;;;;5093579;28;20036;-63
2023/01/25 08:42:25;;;;;;;48.85;40.08;;;1.60;99.90;;;;;;5093071;28;20058;-63
2023/01/25 08:44:51;;;;;;;57.03;46.13;;;1.70;99.90;;;;;;5093261;28;20032;-63
2023/01/25 08:47:17;;;;;;;80.05;66.32;;;1.80;99.90;;;;;;5093050;28;20313;-63
2023/01/25 08:49:42;;;;;;;56.88;49.55;;;1.80;99.90;;;;;;5093255;28;20107;-62
2023/01/25 08:52:08;;;;;;;47.90;39.90;;;1.80;99.90;;;;;;5093274;28;20020;-61
2023/01/25 08:54:34;;;;;;;42.75;35.35;;;1.80;99.90;;;;;;5093191;28;20461;-62
2023/01/25 08:57:00;;;;;;;43.33;36.88;;;1.80;99.90;;;;;;5093018;28;20021;-62
2023/01/25 08:59:26;;;;;;;46.15;37.97;;;1.80;99.90;;;;;;5092854;28;20024;-61
2023/01/25 09:01:52;;;;;;;50.15;39.97;;;1.80;99.90;;;;;;5092492;28;20077;-62
2023/01/25 09:04:18;;;;;;;45.55;36.20;;;1.90;99.90;;;;;;5093429;28;20053;-61
2023/01/25 09:06:44;;;;;;;40.90;34.55;;;2.00;99.90;;;;;;5092747;28;20059;-61
2023/01/25 09:09:11;;;;;;;42.00;35.05;;;2.10;99.90;;;;;;5092048;28;20435;-62
2023/01/25 09:11:39;;;;;;;44.67;36.08;;;2.00;99.90;;;;;;5092525;28;20032;-62
2023/01/25 09:14:05;;;;;;;68.35;58.10;;;2.10;99.90;;;;;;5092534;28;20477;-62
2023/01/25 09:16:30;;;;;;;42.15;36.70;;;2.10;99.90;;;;;;5092537;28;20384;-63
2023/01/25 09:18:59;;;;;;;46.08;37.50;;;2.10;99.90;;;;;;5092531;28;20032;-63
2023/01/25 09:21:25;;;;;;;43.00;35.25;;;2.30;99.90;;;;;;5093061;28;20101;-62
2023/01/25 09:23:52;;;;;;;42.22;34.90;;;2.20;99.90;;;;;;5092237;28;20461;-63
2023/01/25 09:26:18;;;;;;;40.42;34.40;;;2.20;99.90;;;;;;5092391;28;20492;-63
2023/01/25 09:28:49;;;;;;;67.57;60.20;;;2.30;99.90;;;;;;5092645;28;20027;-62
2023/01/25 09:31:15;;;;;;;52.33;41.67;;;2.40;99.90;;;;;;5092331;28;20031;-63
2023/01/25 09:33:41;;;;;;;46.33;41.00;;;2.50;99.90;;;;;;5092537;28;20032;-62
2023/01/25 09:36:08;;;;;;;48.75;42.45;;;2.40;99.90;;;;;;5092535;28;20054;-62
2023/01/25 09:38:34;;;;;;;63.70;51.97;;;2.50;99.90;;;;;;5091996;28;20103;-62
2023/01/25 09:41:43;;;;;;;44.45;34.65;;;2.60;99.90;;;;;;5092239;28;20115;-62
2023/01/25 09:44:22;;;;;;;39.85;32.05;;;2.50;99.90;;;;;;5092309;28;20104;-62
2023/01/25 09:46:57;;;;;;;43.20;32.17;;;2.70;99.90;;;;;;5092230;28;20036;-62
2023/01/25 09:49:38;;;;;;;40.03;33.13;;;2.70;99.90;;;;;;5092567;28;20519;-62
2023/01/25 09:52:30;;;;;;;42.75;32.78;;;2.80;99.90;;;;;;5092633;28;20111;-62
2023/01/25 09:54:57;;;;;;;43.88;35.65;;;2.80;99.90;;;;;;5090604;28;20073;-62
2023/01/25 09:57:33;;;;;;;47.03;37.28;;;2.90;99.90;;;;;;5092143;28;20031;-62
2023/01/25 10:00:17;;;;;;;43.60;37.78;;;2.90;99.90;;;;;;5091742;28;20267;-62
2023/01/25 10:03:24;;;;;;;40.33;35.22;;;3.10;99.90;;;;;;5092044;28;20021;-62
2023/01/25 10:05:55;;;;;;;42.03;33.92;;;3.10;99.90;;;;;;5092181;28;20042;-62
2023/01/25 10:08:34;;;;;;;52.20;46.42;;;3.10;99.90;;;;;;5091851;28;20190;-63
2023/01/25 10:11:27;;;;;;;53.60;46.35;;;3.30;99.90;;;;;;5091940;28;20115;-62
2023/01/25 10:13:55;;;;;;;36.47;30.13;;;3.30;99.90;;;;;;5096215;28;20027;-62
2023/01/25 10:16:44;;;;;;;35.15;30.25;;;3.30;99.90;;;;;;5096106;28;20028;-62
2023/01/25 10:19:16;;;;;;;32.15;28.00;;;3.40;99.90;;;;;;5096081;28;20397;-62
2023/01/25 10:21:47;;;;;;;31.60;28.20;;;3.40;99.90;;;;;;5095821;28;20035;-62
2023/01/25 10:24:34;;;;;;;32.17;28.67;;;3.40;99.90;;;;;;5095909;28;20028;-62
2023/01/25 10:27:24;;;;;;;33.40;29.13;;;3.40;99.90;;;;;;5096080;28;20024;-62
2023/01/25 10:29:54;;;;;;;37.78;31.75;;;3.50;99.90;;;;;;5095867;28;20433;-62
2023/01/25 10:32:27;;;;;;;44.58;39.67;;;3.60;99.90;;;;;;5095903;28;20031;-62
2023/01/25 10:34:57;;;;;;;32.97;28.20;;;3.70;99.90;;;;;;5095751;28;20050;-62
2023/01/25 10:37:31;;;;;;;33.60;26.77;;;3.70;99.90;;;;;;5095524;28;20032;-63
2023/01/25 10:40:16;;;;;;;32.33;26.58;;;3.60;99.90;;;;;;5096075;28;20481;-62
2023/01/25 10:43:01;;;;;;;34.53;30.55;;;3.60;99.90;;;;;;5095713;28;20480;-60
2023/01/25 10:45:26;;;;;;;31.08;26.27;;;3.70;99.90;;;;;;5095604;28;20053;-63
2023/01/25 10:48:01;;;;;;;30.00;25.85;;;3.70;99.90;;;;;;5095467;28;20024;-63
2023/01/25 10:50:55;;;;;;;31.77;26.83;;;3.80;99.90;;;;;;5095592;28;20480;-61
2023/01/25 10:53:24;;;;;;;30.00;24.75;;;3.90;99.90;;;;;;5095596;28;20047;-62
2023/01/25 10:55:58;;;;;;;28.55;25.42;;;3.80;99.90;;;;;;5095538;28;20548;-62
2023/01/25 10:58:45;;;;;;;30.83;26.30;;;3.80;99.90;;;;;;5093705;28;20041;-62
2023/01/25 11:01:43;;;;;;;56.13;50.40;;;3.90;99.90;;;;;;5094575;28;20042;-63
2023/01/25 11:04:29;;;;;;;54.38;49.03;;;4.00;99.90;;;;;;5072647;28;20481;-63
2023/01/25 11:06:55;;;;;;;33.08;29.48;;;3.90;99.90;;;;;;5072179;28;20051;-63
2023/01/25 11:09:20;;;;;;;40.22;34.75;;;4.00;99.90;;;;;;5072714;28;20529;-62
2023/01/25 11:11:56;;;;;;;34.30;27.55;;;4.00;99.90;;;;;;5072540;28;20564;-62
2023/01/25 11:14:26;;;;;;;31.65;27.55;;;4.00;99.90;;;;;;5072692;28;20039;-62
2023/01/25 11:16:54;;;;;;;29.85;26.65;;;4.10;99.90;;;;;;5072991;28;20116;-62
2023/01/25 11:19:31;;;;;;;32.33;27.73;;;4.00;99.90;;;;;;5072226;28;20041;-62
2023/01/25 11:21:59;;;;;;;33.90;29.42;;;4.00;99.90;;;;;;5072141;28;20035;-62
2023/01/25 11:24:33;;;;;;;44.40;35.67;;;4.00;99.90;;;;;;5072218;28;20021;-62
2023/01/25 11:27:25;;;;;;;32.53;27.33;;;4.10;99.90;;;;;;5072263;28;20174;-62
2023/01/25 11:30:14;;;;;;;29.48;26.02;;;4.10;99.90;;;;;;5072223;28;20048;-62
2023/01/25 11:32:41;;;;;;;29.98;26.30;;;4.10;99.90;;;;;;5072638;28;20056;-63
2023/01/25 11:35:30;;;;;;;31.50;28.08;;;4.20;99.90;;;;;;5071977;28;20078;-62
2023/01/25 11:38:11;;;;;;;31.02;26.40;;;4.10;99.90;;;;;;5071538;28;20051;-63
2023/01/25 11:40:43;;;;;;;31.92;28.52;;;4.10;99.90;;;;;;5090646;28;20051;-62
2023/01/25 11:43:09;;;;;;;32.17;27.02;;;4.10;99.90;;;;;;5094635;28;20066;-62
2023/01/25 11:45:38;;;;;;;35.30;31.48;;;4.10;99.90;;;;;;5093927;28;20404;-62
2023/01/25 11:48:09;;;;;;;29.27;26.08;;;4.20;99.90;;;;;;5093811;28;20013;-60
2023/01/25 11:50:44;;;;;;;28.50;24.90;;;4.20;99.90;;;;;;5094027;28;20038;-63
2023/01/25 11:53:34;;;;;;;30.85;27.52;;;4.20;99.90;;;;;;5094112;28;20585;-63
2023/01/25 11:56:05;;;;;;;30.20;25.55;;;4.30;99.90;;;;;;5094363;28;20036;-63
2023/01/25 11:58:43;;;;;;;32.70;29.10;;;4.20;99.90;;;;;;5094386;28;20437;-63
2023/01/25 12:01:17;;;;;;;31.27;27.70;;;4.20;99.90;;;;;;5093806;28;20392;-60
2023/01/25 12:03:46;;;;;;;29.90;26.58;;;4.20;99.90;;;;;;5093918;28;20027;-61
2023/01/25 12:06:11;;;;;;;30.85;27.58;;;4.20;99.90;;;;;;5094225;28;20040;-61
2023/01/25 12:08:47;;;;;;;31.52;27.92;;;4.20;99.90;;;;;;5093870;28;20020;-61
2023/01/25 12:11:26;;;;;;;41.10;36.70;;;4.20;99.90;;;;;;5093703;28;20048;-62
2023/01/25 12:14:23;;;;;;;28.63;25.58;;;4.20;99.90;;;;;;5094349;28;20081;-62
2023/01/25 12:17:13;;;;;;;42.35;33.58;;;4.20;99.90;;;;;;5094026;28;20032;-62
2023/01/25 12:19:59;;;;;;;39.58;32.22;;;4.20;99.90;;;;;;5092874;28;20031;-62
2023/01/25 12:22:36;;;;;;;29.30;24.65;;;4.10;99.90;;;;;;5093560;28;20024;-63
2023/01/25 12:25:20;;;;;;;162.98;114.50;;;4.10;99.90;;;;;;5091968;28;20035;-63
2023/01/25 12:28:27;;;;;;;88.28;62.42;;;4.10;99.90;;;;;;5094088;28;20024;-62
2023/01/25 12:30:56;;;;;;;52.97;43.35;;;4.20;99.90;;;;;;5093533;28;20042;-63
2023/01/25 12:33:37;;;;;;;77.47;61.50;;;4.40;99.90;;;;;;5093176;28;20027;-63
2023/01/25 12:36:12;;;;;;;102.15;81.22;;;4.30;99.90;;;;;;5092333;28;20108;-63
2023/01/25 12:39:02;;;;;;;139.13;114.20;;;4.30;99.90;;;;;;5093281;28;20392;-62
2023/01/25 12:41:50;;;;;;;292.00;254.30;;;4.20;99.90;;;;;;5093945;28;20028;-63
2023/01/25 12:44:22;;;;;;;167.15;132.68;;;4.30;99.90;;;;;;5093403;28;20473;-62
2023/01/25 12:47:06;;;;;;;426.40;378.88;;;4.30;99.90;;;;;;5092917;28;20499;-62